TimeCST,TemperatureF,Dew PointF,Humidity,Sea Level PressureIn,VisibilityMPH,Wind Direction,Wind SpeedMPH,Gust SpeedMPH,PrecipitationIn,Events,Conditions,WindDirDegrees,DateUTC
12:53 AM,21.9,15.1,75,29.99,10.0,WNW,12.7,-,N/A,,Overcast,300,2012-12-07 06:53:00
1:53 AM,21.9,15.1,75,30.01,10.0,WNW,5.8,-,N/A,,Overcast,300,2012-12-07 07:53:00
2:53 AM,23.0,15.1,72,30.01,10.0,NW,8.1,-,N/A,,Overcast,310,2012-12-07 08:53:00
3:53 AM,23.0,15.1,72,30.01,10.0,WNW,5.8,-,N/A,,Overcast,300,2012-12-07 09:53:00
4:53 AM,23.0,15.1,72,30.00,10.0,Calm,Calm,-,N/A,,Overcast,0,2012-12-07 10:53:00
5:53 AM,23.0,15.1,72,30.01,10.0,West,5.8,-,N/A,,Overcast,280,2012-12-07 11:53:00
6:53 AM,21.9,14.0,72,30.03,10.0,NW,6.9,-,N/A,,Overcast,310,2012-12-07 12:53:00
7:53 AM,19.9,12.9,74,30.04,10.0,NW,8.1,-,N/A,,Overcast,320,2012-12-07 13:53:00
8:22 AM,17.6,12.2,79,29.97,10.0,NW,4.6,-,N/A,,Scattered Clouds,310,2012-12-07 14:22:00
8:53 AM,21.0,14.0,74,30.05,10.0,NW,4.6,-,N/A,,Clear,320,2012-12-07 14:53:00
9:53 AM,21.9,12.9,68,30.06,10.0,WNW,3.5,-,N/A,,Clear,300,2012-12-07 15:53:00
10:53 AM,23.0,14.0,68,30.08,10.0,NW,5.8,-,N/A,,Partly Cloudy,320,2012-12-07 16:53:00
11:53 AM,23.0,14.0,68,30.07,10.0,WNW,8.1,-,N/A,,Scattered Clouds,300,2012-12-07 17:53:00
12:09 PM,23.0,14.0,68,29.99,10.0,NW,6.9,-,N/A,,Mostly Cloudy,310,2012-12-07 18:09:00
12:31 PM,23.0,14.0,68,29.98,10.0,NW,8.1,-,N/A,,Scattered Clouds,310,2012-12-07 18:31:00
12:53 PM,23.0,12.9,65,30.06,10.0,NW,8.1,-,N/A,,Clear,320,2012-12-07 18:53:00
1:53 PM,23.0,12.9,65,30.06,10.0,WNW,5.8,-,N/A,,Scattered Clouds,290,2012-12-07 19:53:00
2:53 PM,23.0,12.0,63,30.09,10.0,NW,6.9,-,N/A,,Scattered Clouds,320,2012-12-07 20:53:00
3:53 PM,21.0,10.9,65,30.09,10.0,NNW,6.9,-,N/A,,Clear,330,2012-12-07 21:53:00
4:53 PM,19.9,10.0,65,30.09,10.0,NNW,5.8,-,N/A,,Clear,340,2012-12-07 22:53:00
5:53 PM,17.1,9.0,71,30.11,10.0,NNW,6.9,-,N/A,,Clear,330,2012-12-07 23:53:00
7:53 PM,14.0,6.1,71,30.12,10.0,North,4.6,-,N/A,,Clear,350,2012-12-08 01:53:00
9:53 PM,8.1,3.0,80,30.12,10.0,Calm,Calm,-,N/A,,Clear,0,2012-12-08 03:53:00
10:53 PM,3.9,-0.9,80,30.13,10.0,Calm,Calm,-,N/A,,Clear,0,2012-12-08 04:53:00
11:53 PM,10.9,6.1,81,30.13,10.0,Calm,Calm,-,N/A,,Overcast,0,2012-12-08 05:53:00